createdAt,value
2016-10-21T08:05:41.135Z,113
2016-10-21T08:05:54.875Z,124
2016-10-21T08:06:20.088Z,129
2016-10-21T08:06:36.712Z,120
2016-10-21T08:06:53.202Z,170
2016-10-21T08:07:10.674Z,159
2016-10-21T08:07:32.965Z,157
2016-10-21T08:07:52.508Z,171
2016-10-21T08:08:13.051Z,164
2016-10-21T08:08:35.400Z,181
2016-10-21T08:08:52.456Z,179
2016-10-21T08:09:14.891Z,183
2016-10-21T08:09:25.551Z,206
2016-10-21T08:09:42.107Z,186
2016-10-21T08:10:04.587Z,178
2016-10-21T08:10:24.203Z,195
2016-10-21T08:10:38.175Z,189
2016-10-21T08:10:52.014Z,189
2016-10-21T08:11:03.080Z,205
2016-10-21T08:11:26.812Z,199
2016-10-21T08:11:40.645Z,209
2016-10-21T08:12:00.360Z,212
2016-10-21T08:12:17.903Z,201
2016-10-21T08:12:37.336Z,204
2016-10-21T08:12:53.710Z,203
2016-10-21T08:13:13.170Z,219
2016-10-21T08:13:30.040Z,219
2016-10-21T08:13:49.506Z,210
2016-10-21T08:14:05.900Z,225
2016-10-21T08:14:31.378Z,204
2016-10-21T08:14:45.272Z,224
2016-10-21T08:15:02.210Z,221
2016-10-21T08:15:19.151Z,224
2016-10-21T08:15:36.863Z,231
2016-10-21T08:15:56.303Z,225
2016-10-21T08:16:15.806Z,231
2016-10-21T08:16:32.447Z,256
2016-10-21T08:16:46.085Z,239
2016-10-21T08:17:05.800Z,248
2016-10-21T08:17:20.111Z,235
2016-10-21T08:17:37.003Z,224
2016-10-21T08:51:55.154Z,208
2016-10-21T08:52:15.000Z,215
2016-10-21T08:52:32.984Z,159
2016-10-21T08:52:50.645Z,199
2016-10-21T08:53:14.024Z,210
2016-10-21T08:53:32.392Z,165
2016-10-21T08:53:55.518Z,218
2016-10-21T08:54:20.981Z,236
2016-10-21T08:54:45.512Z,243
2016-10-21T08:55:02.446Z,200
2016-10-21T08:55:17.422Z,218
2016-10-21T08:55:41.464Z,226
2016-10-21T08:56:05.407Z,236
2016-10-21T10:16:08.234Z,206
2016-10-21T10:16:34.183Z,204
2016-10-21T10:16:56.778Z,206
2016-10-21T10:17:19.431Z,211
2016-10-21T10:17:39.514Z,201
2016-10-21T10:17:56.829Z,194
2016-10-21T10:18:14.371Z,210
2016-10-21T10:18:37.033Z,203
2016-10-21T10:19:00.694Z,209
2016-10-21T10:19:21.399Z,222
2016-10-21T10:19:41.846Z,226
2016-10-21T10:20:04.605Z,232
2016-10-21T10:20:24.151Z,242
2016-10-21T10:20:41.079Z,222
2016-10-21T10:21:01.725Z,244
2016-10-21T10:21:19.152Z,211
2016-10-21T10:21:44.871Z,222
2016-10-21T10:22:07.354Z,227
2016-10-21T10:22:28.995Z,225
2016-10-21T10:22:46.746Z,225
2016-10-21T10:23:01.216Z,222
2016-10-21T10:23:15.046Z,224
2016-10-21T10:23:38.218Z,247
2016-10-21T10:23:55.879Z,239
2016-10-21T10:24:10.973Z,236
2016-10-21T10:24:32.294Z,219
2016-10-21T10:24:52.435Z,229
2016-10-21T10:25:09.543Z,231
2016-10-21T10:25:30.061Z,235
2016-10-21T10:25:51.114Z,236
2016-10-21T10:26:09.101Z,238
2016-10-21T10:26:33.127Z,238
2016-10-21T10:26:54.436Z,236
2016-10-21T10:27:15.639Z,254
2016-10-21T10:27:38.394Z,253
2016-10-21T10:27:53.479Z,246
2016-10-21T10:28:14.628Z,251
2016-10-21T10:28:32.874Z,236
2016-10-21T10:28:51.063Z,287
2016-10-21T10:29:17.450Z,252
2016-10-21T10:29:39.562Z,252
2016-10-21T10:29:55.102Z,248
2016-10-21T10:30:21.655Z,238
2016-10-21T10:30:40.765Z,265
2016-10-21T10:31:15.127Z,266
2016-10-21T10:31:34.442Z,254
2016-10-21T10:32:00.756Z,264
